Time;durP1;ratioP1;P1;durP2;ratioP2;P2;SDS_P1;SDS_P2;PMS_P1;PMS_P2;Temp;Humidity;BMP_temperature;BMP_pressure;BME280_temperature;BME280_humidity;BME280_pressure;Samples;Min_cycle;Max_cycle;Signal;HPM_P1;HPM_P2
2022/09/02 00:00:07;;;;;;;11.40;6.00;;;;;;;;;;4981064;28;20093;-74
2022/09/02 00:02:33;;;;;;;7.95;5.80;;;;;;;;;;4990509;28;20019;-74
2022/09/02 00:04:59;;;;;;;7.57;6.22;;;;;;;;;;4991474;28;20078;-75
2022/09/02 00:07:25;;;;;;;11.30;6.22;;;;;;;;;;4987772;28;20512;-73
2022/09/02 00:09:51;;;;;;;10.05;6.10;;;;;;;;;;4986249;28;20030;-74
2022/09/02 00:12:17;;;;;;;8.57;6.28;;;;;;;;;;4995295;28;20026;-74
2022/09/02 00:14:43;;;;;;;8.63;6.18;;;;;;;;;;4983001;28;20101;-74
2022/09/02 00:17:11;;;;;;;9.95;6.80;;;;;;;;;;4985686;28;20419;-73
2022/09/02 00:19:37;;;;;;;8.98;6.50;;;;;;;;;;4992674;28;20078;-72
2022/09/02 00:22:03;;;;;;;8.52;6.50;;;;;;;;;;4994973;28;20472;-71
2022/09/02 00:24:30;;;;;;;7.20;6.25;;;;;;;;;;4984988;28;20111;-74
2022/09/02 00:26:56;;;;;;;7.05;5.88;;;;;;;;;;4963302;28;20022;-74
2022/09/02 00:29:22;;;;;;;7.38;5.93;;;;;;;;;;4996855;28;20026;-73
2022/09/02 00:31:49;;;;;;;8.60;5.65;;;;;;;;;;4980095;28;20077;-75
2022/09/02 00:34:16;;;;;;;8.18;5.88;;;;;;;;;;4988422;28;20038;-74
2022/09/02 00:36:43;;;;;;;9.95;6.03;;;;;;;;;;4989802;28;20376;-74
2022/09/02 00:39:09;;;;;;;8.82;6.10;;;;;;;;;;4996990;28;20018;-74
2022/09/02 00:41:37;;;;;;;10.82;5.97;;;;;;;;;;4985113;28;20468;-75
2022/09/02 00:44:06;;;;;;;7.68;5.80;;;;;;;;;;4994927;28;20066;-74
2022/09/02 00:46:33;;;;;;;10.95;6.57;;;;;;;;;;4982546;28;20472;-73
2022/09/02 00:48:59;;;;;;;7.65;5.85;;;;;;;;;;4985542;28;20045;-72
2022/09/02 00:51:27;;;;;;;6.53;5.80;;;;;;;;;;4992527;28;20034;-75
2022/09/02 00:53:54;;;;;;;9.70;6.25;;;;;;;;;;4991880;28;20027;-74
2022/09/02 00:56:22;;;;;;;14.50;9.18;;;;;;;;;;4987147;28;20031;-74
2022/09/02 00:58:49;;;;;;;8.10;6.50;;;;;;;;;;4977247;28;20027;-74
2022/09/02 01:01:15;;;;;;;10.73;6.40;;;;;;;;;;4986305;28;20498;-74
2022/09/02 01:03:42;;;;;;;8.35;6.00;;;;;;;;;;4982324;28;20481;-72
2022/09/02 01:06:14;;;;;;;7.63;5.70;;;;;;;;;;4979954;28;20030;-73
2022/09/02 01:08:42;;;;;;;8.93;5.60;;;;;;;;;;4979316;28;20080;-74
2022/09/02 01:11:09;;;;;;;8.50;6.43;;;;;;;;;;4989111;28;20026;-72
2022/09/02 01:13:38;;;;;;;9.90;5.95;;;;;;;;;;4986135;28;20027;-72
2022/09/02 01:16:10;;;;;;;7.10;5.68;;;;;;;;;;4977766;28;20070;-72
2022/09/02 01:18:36;;;;;;;9.55;6.15;;;;;;;;;;4977063;28;20086;-74
2022/09/02 01:21:03;;;;;;;6.70;5.40;;;;;;;;;;4987256;28;20028;-75
2022/09/02 01:23:30;;;;;;;8.55;5.80;;;;;;;;;;4991873;28;20109;-71
2022/09/02 01:25:56;;;;;;;10.20;6.05;;;;;;;;;;4975405;28;20030;-74
2022/09/02 01:28:22;;;;;;;7.45;5.80;;;;;;;;;;4981127;28;20030;-71
2022/09/02 01:30:53;;;;;;;6.97;5.75;;;;;;;;;;4984704;28;20042;-73
2022/09/02 01:33:20;;;;;;;10.30;5.95;;;;;;;;;;4989309;28;20088;-73
2022/09/02 01:35:47;;;;;;;8.23;5.90;;;;;;;;;;4980222;28;20058;-74
2022/09/02 01:38:13;;;;;;;8.25;5.75;;;;;;;;;;4975219;28;20027;-74
2022/09/02 01:40:40;;;;;;;9.20;6.35;;;;;;;;;;4993436;28;20284;-72
2022/09/02 01:43:12;;;;;;;11.05;6.53;;;;;;;;;;4984580;28;20022;-72
2022/09/02 01:45:39;;;;;;;7.55;5.82;;;;;;;;;;4987030;28;20046;-74
2022/09/02 01:48:07;;;;;;;10.00;6.07;;;;;;;;;;4984746;28;20033;-74
2022/09/02 01:50:35;;;;;;;8.77;5.45;;;;;;;;;;4993837;28;20043;-73
2022/09/02 01:53:02;;;;;;;7.60;5.68;;;;;;;;;;4994842;28;20040;-71
2022/09/02 01:55:29;;;;;;;6.47;5.50;;;;;;;;;;4981135;28;20082;-74
2022/09/02 01:57:55;;;;;;;7.97;5.88;;;;;;;;;;4981516;28;20022;-72
2022/09/02 02:00:21;;;;;;;8.68;6.05;;;;;;;;;;4981289;28;20471;-74
2022/09/02 02:02:48;;;;;;;8.05;5.70;;;;;;;;;;4993327;28;20384;-75
2022/09/02 02:05:14;;;;;;;8.98;5.97;;;;;;;;;;4979858;28;20452;-71
2022/09/02 02:07:41;;;;;;;6.60;5.05;;;;;;;;;;4977083;28;20019;-73
2022/09/02 02:10:09;;;;;;;7.00;5.38;;;;;;;;;;4992159;28;20018;-73
2022/09/02 02:12:35;;;;;;;7.57;5.53;;;;;;;;;;4978293;28;20077;-74
2022/09/02 02:15:02;;;;;;;7.47;4.95;;;;;;;;;;4991892;28;20025;-74
2022/09/02 02:17:28;;;;;;;8.50;5.05;;;;;;;;;;4974410;28;20034;-71
2022/09/02 02:19:55;;;;;;;6.88;5.18;;;;;;;;;;4989569;28;20137;-72
2022/09/02 02:22:21;;;;;;;8.90;5.07;;;;;;;;;;4978502;28;20441;-73
2022/09/02 02:24:47;;;;;;;8.30;5.25;;;;;;;;;;4988389;28;20034;-72
2022/09/02 02:27:13;;;;;;;7.47;5.30;;;;;;;;;;4994325;28;20022;-73
2022/09/02 02:29:39;;;;;;;6.28;4.80;;;;;;;;;;4978592;28;20030;-75
2022/09/02 02:32:06;;;;;;;5.80;4.63;;;;;;;;;;4988669;28;20508;-75
2022/09/02 02:34:33;;;;;;;8.48;4.57;;;;;;;;;;4985811;28;20032;-75
2022/09/02 02:36:59;;;;;;;7.43;4.63;;;;;;;;;;4993554;28;20026;-71
2022/09/02 02:39:25;;;;;;;6.10;4.30;;;;;;;;;;4986646;28;20030;-70
2022/09/02 02:41:51;;;;;;;6.22;4.30;;;;;;;;;;4987943;28;20104;-74
2022/09/02 02:44:17;;;;;;;7.82;5.00;;;;;;;;;;4976927;28;20034;-74
2022/09/02 02:46:47;;;;;;;7.15;4.38;;;;;;;;;;4986441;28;20030;-74
2022/09/02 02:49:13;;;;;;;6.10;3.85;;;;;;;;;;4993677;28;20046;-74
2022/09/02 02:51:40;;;;;;;8.82;4.22;;;;;;;;;;4986827;28;20473;-75
2022/09/02 02:54:06;;;;;;;7.28;4.53;;;;;;;;;;4984560;28;20026;-71
2022/09/02 02:56:32;;;;;;;6.00;4.30;;;;;;;;;;4989223;28;20030;-74
2022/09/02 02:59:01;;;;;;;6.07;4.10;;;;;;;;;;4981991;28;20030;-73
2022/09/02 03:01:28;;;;;;;5.32;4.03;;;;;;;;;;4965223;28;20038;-73
2022/09/02 03:03:54;;;;;;;5.43;4.30;;;;;;;;;;4973856;28;20046;-71
2022/09/02 03:06:20;;;;;;;6.78;4.40;;;;;;;;;;4979910;28;20030;-73
2022/09/02 03:08:47;;;;;;;8.25;4.65;;;;;;;;;;4964996;28;20121;-72
2022/09/02 03:11:14;;;;;;;6.53;4.10;;;;;;;;;;4986519;28;20025;-70
2022/09/02 03:13:40;;;;;;;6.97;4.43;;;;;;;;;;4973770;28;20027;-73
2022/09/02 03:16:06;;;;;;;5.95;4.57;;;;;;;;;;4975121;28;20040;-75
2022/09/02 03:18:32;;;;;;;7.32;4.05;;;;;;;;;;4976782;28;20040;-74
2022/09/02 03:20:58;;;;;;;7.88;4.20;;;;;;;;;;4989098;28;20031;-73
2022/09/02 03:23:27;;;;;;;7.63;4.20;;;;;;;;;;4972533;28;20038;-74
2022/09/02 03:25:53;;;;;;;6.28;4.22;;;;;;;;;;4974580;28;20143;-74
2022/09/02 03:28:19;;;;;;;7.18;4.40;;;;;;;;;;4986733;28;20100;-73
2022/09/02 03:30:48;;;;;;;8.13;3.95;;;;;;;;;;4979468;28;20038;-74
2022/09/02 03:33:14;;;;;;;9.63;4.55;;;;;;;;;;4978969;28;20493;-74
2022/09/02 03:35:41;;;;;;;7.60;4.88;;;;;;;;;;4975394;28;20031;-72
2022/09/02 03:38:08;;;;;;;6.60;4.68;;;;;;;;;;4985163;28;20026;-73
2022/09/02 03:40:34;;;;;;;6.85;4.47;;;;;;;;;;4993247;28;20019;-70
2022/09/02 03:43:00;;;;;;;6.63;4.38;;;;;;;;;;4993806;28;20022;-73
2022/09/02 03:45:26;;;;;;;6.90;4.40;;;;;;;;;;4993103;28;20030;-73
2022/09/02 03:47:53;;;;;;;7.28;4.28;;;;;;;;;;4970644;28;20030;-73
2022/09/02 03:50:23;;;;;;;5.80;4.40;;;;;;;;;;4973103;28;20031;-73
2022/09/02 03:52:49;;;;;;;6.05;4.55;;;;;;;;;;4975222;28;20019;-73
2022/09/02 03:55:15;;;;;;;7.10;4.47;;;;;;;;;;4982433;28;20034;-77
2022/09/02 03:57:41;;;;;;;7.72;5.05;;;;;;;;;;4976603;28;20460;-76
2022/09/02 04:00:09;;;;;;;7.97;4.43;;;;;;;;;;4976250;28;20091;-75
2022/09/02 04:02:35;;;;;;;6.70;4.18;;;;;;;;;;4982964;28;20487;-75
2022/09/02 04:05:04;;;;;;;7.03;4.50;;;;;;;;;;4984626;28;20122;-75
2022/09/02 04:07:30;;;;;;;9.77;4.35;;;;;;;;;;4971226;28;20105;-76
2022/09/02 04:09:57;;;;;;;6.85;4.82;;;;;;;;;;4973683;28;20031;-76
2022/09/02 04:12:25;;;;;;;5.95;4.70;;;;;;;;;;4974531;28;20058;-75
2022/09/02 04:14:54;;;;;;;7.25;4.70;;;;;;;;;;4978703;28;20023;-75
2022/09/02 04:17:20;;;;;;;6.93;4.53;;;;;;;;;;4983841;28;20046;-75
2022/09/02 04:19:46;;;;;;;5.30;4.13;;;;;;;;;;4971523;28;20058;-75
2022/09/02 04:22:12;;;;;;;5.38;4.60;;;;;;;;;;4992792;28;20029;-75
2022/09/02 04:24:38;;;;;;;8.23;4.40;;;;;;;;;;4997831;28;20039;-74
2022/09/02 04:27:04;;;;;;;8.50;4.80;;;;;;;;;;4996377;28;20021;-76
2022/09/02 04:29:31;;;;;;;7.75;4.32;;;;;;;;;;4988264;28;20105;-75
2022/09/02 04:31:57;;;;;;;9.93;4.47;;;;;;;;;;4990228;28;20078;-69
2022/09/02 04:34:23;;;;;;;6.82;4.35;;;;;;;;;;4977715;28;20034;-74
2022/09/02 04:36:49;;;;;;;7.57;4.35;;;;;;;;;;4976808;28;20113;-75
2022/09/02 04:39:15;;;;;;;6.00;4.25;;;;;;;;;;4986119;28;20026;-75
2022/09/02 04:41:41;;;;;;;4.90;4.00;;;;;;;;;;4975429;28;20019;-75
2022/09/02 04:44:07;;;;;;;5.95;4.35;;;;;;;;;;4981173;28;20035;-73
2022/09/02 04:46:38;;;;;;;8.45;4.50;;;;;;;;;;4978394;28;20023;-77
2022/09/02 04:49:07;;;;;;;5.85;4.32;;;;;;;;;;4980246;28;20019;-78
2022/09/02 04:51:33;;;;;;;7.22;4.90;;;;;;;;;;4987575;28;20496;-71
2022/09/02 04:54:00;;;;;;;5.85;4.50;;;;;;;;;;4985318;28;20482;-73
2022/09/02 04:56:28;;;;;;;10.05;5.63;;;;;;;;;;4986586;28;20031;-71
2022/09/02 04:58:55;;;;;;;15.77;5.28;;;;;;;;;;4997253;28;20022;-74
2022/09/02 05:01:25;;;;;;;7.13;4.70;;;;;;;;;;4997171;28;20380;-73
2022/09/02 05:03:52;;;;;;;5.57;4.20;;;;;;;;;;4992676;28;20061;-76
2022/09/02 05:06:20;;;;;;;7.53;5.18;;;;;;;;;;4988979;28;20023;-78
2022/09/02 05:08:50;;;;;;;6.22;4.53;;;;;;;;;;4991782;28;20030;-76
2022/09/02 05:11:18;;;;;;;6.47;4.63;;;;;;;;;;4994631;28;20039;-73
2022/09/02 05:13:49;;;;;;;9.23;5.00;;;;;;;;;;4978170;28;20034;-70
2022/09/02 05:16:15;;;;;;;8.02;4.95;;;;;;;;;;4983598;28;20031;-72
2022/09/02 05:18:42;;;;;;;6.63;5.22;;;;;;;;;;4971326;28;20122;-73
2022/09/02 05:21:08;;;;;;;9.55;5.35;;;;;;;;;;4957287;29;20436;-72
2022/09/02 05:23:34;;;;;;;8.55;5.35;;;;;;;;;;4957101;28;20031;-74
2022/09/02 05:26:04;;;;;;;6.28;5.00;;;;;;;;;;4957748;29;20385;-74
2022/09/02 05:28:30;;;;;;;9.00;5.30;;;;;;;;;;4955524;29;20167;-70
2022/09/02 05:31:01;;;;;;;7.57;5.00;;;;;;;;;;4957231;29;20035;-70
2022/09/02 05:33:27;;;;;;;8.68;5.20;;;;;;;;;;4938729;29;20024;-76
2022/09/02 05:35:54;;;;;;;11.02;5.15;;;;;;;;;;4956835;29;20082;-76
2022/09/02 05:38:20;;;;;;;9.80;5.38;;;;;;;;;;4954804;29;20113;-76
2022/09/02 05:40:46;;;;;;;8.48;5.22;;;;;;;;;;4952636;28;20031;-74
2022/09/02 05:43:14;;;;;;;6.53;4.90;;;;;;;;;;4952038;28;20031;-76
2022/09/02 05:45:40;;;;;;;11.45;5.10;;;;;;;;;;4952877;28;20521;-75
2022/09/02 05:49:04;;;;;;;7.82;4.70;;;;;;;;;;4949124;28;20036;-74
2022/09/02 05:50:52;;;;;;;7.63;5.03;;;;;;;;;;4952290;28;20192;-76
2022/09/02 05:53:21;;;;;;;8.00;4.78;;;;;;;;;;4955839;28;20019;-76
2022/09/02 05:55:47;;;;;;;6.63;5.05;;;;;;;;;;4958596;28;20027;-74
2022/09/02 05:58:13;;;;;;;8.07;5.40;;;;;;;;;;4960195;28;20386;-75
2022/09/02 06:00:39;;;;;;;7.78;5.15;;;;;;;;;;4954093;28;20433;-75
2022/09/02 06:03:05;;;;;;;8.55;5.43;;;;;;;;;;4957484;28;20059;-73
2022/09/02 06:05:31;;;;;;;6.25;4.68;;;;;;;;;;4957617;29;20054;-73
2022/09/02 06:07:57;;;;;;;9.57;5.03;;;;;;;;;;4966857;28;20034;-76
2022/09/02 06:10:24;;;;;;;5.70;5.00;;;;;;;;;;4955933;28;20027;-75
2022/09/02 06:12:50;;;;;;;15.50;5.35;;;;;;;;;;4973971;28;20504;-71
2022/09/02 06:15:18;;;;;;;7.72;5.55;;;;;;;;;;4963838;28;20035;-69
2022/09/02 06:17:44;;;;;;;7.25;4.85;;;;;;;;;;4954640;29;20615;-72
2022/09/02 06:20:10;;;;;;;7.63;5.07;;;;;;;;;;4986511;28;20054;-71
2022/09/02 06:22:36;;;;;;;7.15;5.07;;;;;;;;;;4974417;28;20101;-72
2022/09/02 06:25:02;;;;;;;8.88;4.75;;;;;;;;;;4974064;28;20073;-71
2022/09/02 06:27:28;;;;;;;6.78;4.78;;;;;;;;;;4961114;28;20035;-69
2022/09/02 06:29:54;;;;;;;8.05;4.47;;;;;;;;;;4976721;28;20034;-68
2022/09/02 06:32:20;;;;;;;7.22;4.53;;;;;;;;;;4972515;28;20027;-68
2022/09/02 06:34:47;;;;;;;5.47;4.20;;;;;;;;;;4981370;28;20030;-72
2022/09/02 06:37:13;;;;;;;4.85;4.13;;;;;;;;;;4976231;28;20026;-73
2022/09/02 06:39:43;;;;;;;5.68;4.40;;;;;;;;;;4981659;28;20022;-70
2022/09/02 06:42:09;;;;;;;6.50;4.35;;;;;;;;;;4989110;28;20034;-73
2022/09/02 06:44:36;;;;;;;9.55;4.38;;;;;;;;;;4976359;28;20035;-73
2022/09/02 06:47:03;;;;;;;6.93;4.35;;;;;;;;;;4971194;28;20054;-74
2022/09/02 06:49:29;;;;;;;8.02;4.30;;;;;;;;;;4976536;28;20042;-76
2022/09/02 06:51:55;;;;;;;5.22;4.05;;;;;;;;;;4975515;28;20030;-75
2022/09/02 06:54:22;;;;;;;7.97;3.97;;;;;;;;;;4973609;28;20377;-75
2022/09/02 06:56:49;;;;;;;5.25;3.95;;;;;;;;;;4982034;28;20050;-75
2022/09/02 06:59:16;;;;;;;5.68;4.13;;;;;;;;;;4978331;28;20086;-69
2022/09/02 07:01:43;;;;;;;4.97;3.53;;;;;;;;;;4988519;28;20062;-71
2022/09/02 07:06:54;;;;;;;6.07;3.63;;;;;;;;;;4974476;28;20076;-73
2022/09/02 07:09:22;;;;;;;8.25;3.95;;;;;;;;;;4975620;28;20638;-74
2022/09/02 07:11:49;;;;;;;5.88;3.70;;;;;;;;;;4978737;28;20038;-76
2022/09/02 07:14:20;;;;;;;6.50;3.97;;;;;;;;;;4981836;28;20026;-77
2022/09/02 07:16:48;;;;;;;5.20;3.90;;;;;;;;;;4977249;28;20026;-77
2022/09/02 07:19:24;;;;;;;7.20;3.80;;;;;;;;;;4997764;28;20114;-77
2022/09/02 07:22:15;;;;;;;7.25;4.20;;;;;;;;;;4988328;28;20513;-76
2022/09/02 07:24:51;;;;;;;8.70;4.32;;;;;;;;;;4981603;28;20031;-75
2022/09/02 07:29:58;;;;;;;6.47;4.18;;;;;;;;;;5317511;23;20036;-77
2022/09/02 07:35:55;;;;;;;5.35;4.00;;;;;;;;;;4982928;28;20091;-79
2022/09/02 07:38:31;;;;;;;4.70;3.88;;;;;;;;;;4974100;28;20035;-77
2022/09/02 07:41:06;;;;;;;5.53;4.00;;;;;;;;;;4931133;29;20063;-77
2022/09/02 07:43:32;;;;;;;10.82;4.05;;;;;;;;;;4948346;28;20043;-68
2022/09/02 07:45:59;;;;;;;8.05;4.40;;;;;;;;;;4948841;28;20039;-75
2022/09/02 07:48:26;;;;;;;6.88;4.25;;;;;;;;;;4957370;28;20433;-76
2022/09/02 07:50:52;;;;;;;5.63;4.57;;;;;;;;;;4954557;28;20110;-75
2022/09/02 07:53:19;;;;;;;9.77;4.60;;;;;;;;;;4959308;28;20030;-74
2022/09/02 07:55:46;;;;;;;8.30;4.55;;;;;;;;;;4958824;28;20027;-75
2022/09/02 07:58:12;;;;;;;6.95;4.30;;;;;;;;;;4964480;28;20087;-74
2022/09/02 08:00:38;;;;;;;7.07;4.07;;;;;;;;;;4994767;28;20067;-76
2022/09/02 08:03:05;;;;;;;5.95;4.30;;;;;;;;;;4992257;28;20074;-76
2022/09/02 08:05:33;;;;;;;6.68;4.63;;;;;;;;;;4971429;28;20564;-75
2022/09/02 08:07:59;;;;;;;7.80;4.32;;;;;;;;;;4977793;28;20031;-76
2022/09/02 08:10:28;;;;;;;6.85;5.05;;;;;;;;;;4962491;28;20126;-74
2022/09/02 08:12:54;;;;;;;6.78;4.90;;;;;;;;;;4981708;28;20062;-75
2022/09/02 08:15:21;;;;;;;7.38;5.22;;;;;;;;;;4973732;28;20122;-69
2022/09/02 08:17:48;;;;;;;7.68;4.65;;;;;;;;;;4979640;28;20030;-75
2022/09/02 08:20:16;;;;;;;5.32;4.05;;;;;;;;;;4977842;28;20038;-76
2022/09/02 08:22:42;;;;;;;8.02;4.75;;;;;;;;;;4973448;28;20524;-75
2022/09/02 08:25:09;;;;;;;6.22;4.40;;;;;;;;;;4972572;28;20047;-73
2022/09/02 08:27:35;;;;;;;6.13;4.90;;;;;;;;;;4969587;28;20043;-75
2022/09/02 08:30:02;;;;;;;5.72;4.40;;;;;;;;;;4978350;28;20051;-74
2022/09/02 08:32:28;;;;;;;5.80;4.68;;;;;;;;;;4972057;28;20058;-73
2022/09/02 08:34:54;;;;;;;7.97;4.35;;;;;;;;;;4974007;28;20109;-73
2022/09/02 08:37:21;;;;;;;5.10;3.88;;;;;;;;;;4974524;28;20042;-75
2022/09/02 08:39:48;;;;;;;5.55;4.18;;;;;;;;;;4969351;28;20027;-76
2022/09/02 08:42:32;;;;;;;8.05;4.10;;;;;;;;;;4977721;28;20042;-76
2022/09/02 08:45:18;;;;;;;5.25;4.50;;;;;;;;;;4972809;28;20047;-76
2022/09/02 08:47:47;;;;;;;6.55;4.25;;;;;;;;;;4974869;28;20072;-76
2022/09/02 08:50:17;;;;;;;6.88;3.97;;;;;;;;;;4984263;28;20089;-70
2022/09/02 08:52:52;;;;;;;7.35;4.30;;;;;;;;;;4978573;28;20023;-70
2022/09/02 08:55:21;;;;;;;8.15;4.60;;;;;;;;;;4980324;28;20031;-69
2022/09/02 08:57:48;;;;;;;6.40;4.30;;;;;;;;;;4985300;28;20023;-70
2022/09/02 09:00:14;;;;;;;5.72;4.40;;;;;;;;;;4974854;28;20030;-70
2022/09/02 09:02:55;;;;;;;19.80;5.30;;;;;;;;;;4986642;28;20019;-75
2022/09/02 09:05:21;;;;;;;8.55;4.68;;;;;;;;;;4975224;28;20045;-70
2022/09/02 09:07:58;;;;;;;13.02;5.18;;;;;;;;;;4964568;28;20023;-76
2022/09/02 09:10:43;;;;;;;5.40;4.15;;;;;;;;;;4974081;28;20082;-75
2022/09/02 09:13:21;;;;;;;5.50;4.32;;;;;;;;;;4981728;28;20047;-76
2022/09/02 09:15:50;;;;;;;5.85;4.07;;;;;;;;;;4993759;28;20030;-75
2022/09/02 09:18:18;;;;;;;5.80;4.32;;;;;;;;;;4965747;28;20485;-76
2022/09/02 09:20:45;;;;;;;7.47;4.43;;;;;;;;;;4979245;28;20058;-75
2022/09/02 09:23:14;;;;;;;5.97;4.55;;;;;;;;;;4986008;28;20031;-75
2022/09/02 09:25:40;;;;;;;7.93;4.60;;;;;;;;;;4976541;28;20613;-74
2022/09/02 09:28:06;;;;;;;7.95;5.13;;;;;;;;;;4979870;28;20166;-73
2022/09/02 09:30:32;;;;;;;9.90;5.20;;;;;;;;;;4994295;28;20041;-73
2022/09/02 09:32:59;;;;;;;8.63;4.88;;;;;;;;;;4972477;28;20030;-72
2022/09/02 09:35:26;;;;;;;8.43;4.50;;;;;;;;;;4973037;28;20026;-69
2022/09/02 09:37:53;;;;;;;8.32;4.80;;;;;;;;;;4978164;28;20035;-69
2022/09/02 09:40:19;;;;;;;6.88;4.60;;;;;;;;;;4990336;28;20480;-75
2022/09/02 09:42:47;;;;;;;6.47;4.13;;;;;;;;;;4982527;28;20030;-77
2022/09/02 09:45:40;;;;;;;5.63;4.55;;;;;;;;;;4978636;28;20039;-75
2022/09/02 09:48:15;;;;;;;6.17;4.77;;;;;;;;;;4973506;28;20034;-74
2022/09/02 09:50:44;;;;;;;7.18;4.72;;;;;;;;;;4987837;28;20026;-75
2022/09/02 09:53:19;;;;;;;7.30;4.90;;;;;;;;;;4959880;28;20035;-76
2022/09/02 09:56:05;;;;;;;6.97;4.57;;;;;;;;;;4982297;28;20042;-76
2022/09/02 09:58:32;;;;;;;10.02;4.88;;;;;;;;;;4974825;28;20035;-70
2022/09/02 10:01:12;;;;;;;7.43;5.20;;;;;;;;;;4983349;28;20058;-74
2022/09/02 10:03:42;;;;;;;10.02;5.10;;;;;;;;;;4978588;28;20031;-76
2022/09/02 10:06:23;;;;;;;6.35;4.88;;;;;;;;;;4979663;28;20027;-75
2022/09/02 10:08:50;;;;;;;6.85;4.88;;;;;;;;;;4975197;28;20051;-69
2022/09/02 10:11:21;;;;;;;9.23;5.57;;;;;;;;;;4979193;28;20369;-69
2022/09/02 10:13:47;;;;;;;7.72;4.95;;;;;;;;;;4985010;28;20047;-70
2022/09/02 10:16:26;;;;;;;8.20;5.53;;;;;;;;;;4976814;28;20026;-72
2022/09/02 10:18:58;;;;;;;6.53;5.65;;;;;;;;;;4968993;28;20038;-76
2022/09/02 10:21:27;;;;;;;9.75;6.20;;;;;;;;;;4960854;28;20042;-77
2022/09/02 10:24:11;;;;;;;10.80;6.45;;;;;;;;;;4984368;28;20077;-74
2022/09/02 10:26:41;;;;;;;11.55;6.95;;;;;;;;;;4978092;28;20031;-74
2022/09/02 10:29:25;;;;;;;8.38;6.50;;;;;;;;;;4960265;28;20485;-73
2022/09/02 10:31:51;;;;;;;10.25;7.22;;;;;;;;;;4991017;28;20047;-72
2022/09/02 10:34:23;;;;;;;10.98;7.35;;;;;;;;;;4979641;28;20090;-75
2022/09/02 10:37:07;;;;;;;9.43;6.97;;;;;;;;;;4972912;28;20145;-74
2022/09/02 10:39:33;;;;;;;9.10;7.63;;;;;;;;;;4978109;28;20147;-73
2022/09/02 10:42:09;;;;;;;9.43;7.60;;;;;;;;;;4976293;28;20035;-73
2022/09/02 10:44:55;;;;;;;10.68;7.47;;;;;;;;;;4969622;28;20039;-75
2022/09/02 10:47:28;;;;;;;8.82;7.45;;;;;;;;;;4920309;29;20036;-74
2022/09/02 10:50:02;;;;;;;8.35;7.43;;;;;;;;;;4916360;29;20040;-74
2022/09/02 10:52:38;;;;;;;10.57;7.40;;;;;;;;;;4915669;29;20040;-74
2022/09/02 10:55:20;;;;;;;12.15;7.57;;;;;;;;;;4915306;29;20067;-76
2022/09/02 10:57:52;;;;;;;10.52;7.70;;;;;;;;;;4916043;29;20032;-75
2022/09/02 11:00:19;;;;;;;9.65;7.25;;;;;;;;;;4901946;29;20595;-75
2022/09/02 11:03:06;;;;;;;11.80;7.18;;;;;;;;;;4913195;29;20032;-76
2022/09/02 11:05:32;;;;;;;9.23;7.28;;;;;;;;;;4927321;28;20054;-72
2022/09/02 11:07:58;;;;;;;9.27;7.68;;;;;;;;;;4910840;29;20028;-70
2022/09/02 11:10:30;;;;;;;10.35;7.60;;;;;;;;;;4912415;28;20151;-67
2022/09/02 11:13:02;;;;;;;10.65;8.20;;;;;;;;;;4912236;29;20100;-70
2022/09/02 11:15:56;;;;;;;10.93;7.82;;;;;;;;;;4913840;29;20163;-75
2022/09/02 11:18:30;;;;;;;9.48;8.07;;;;;;;;;;4856295;29;20406;-75
2022/09/02 11:21:00;;;;;;;11.50;8.60;;;;;;;;;;4860747;29;20041;-75
2022/09/02 11:23:32;;;;;;;10.80;8.07;;;;;;;;;;4866559;29;20041;-69
2022/09/02 11:26:21;;;;;;;12.13;8.73;;;;;;;;;;4909305;29;21442;-70
2022/09/02 11:28:51;;;;;;;13.85;9.18;;;;;;;;;;4910638;29;20561;-70
2022/09/02 11:31:24;;;;;;;10.20;7.53;;;;;;;;;;4904145;29;20096;-69
2022/09/02 11:33:53;;;;;;;11.57;7.70;;;;;;;;;;4908381;29;20033;-76
2022/09/02 11:36:19;;;;;;;17.65;9.52;;;;;;;;;;4909390;29;20048;-69
2022/09/02 11:38:48;;;;;;;13.90;9.05;;;;;;;;;;4907664;29;20410;-70
2022/09/02 11:41:34;;;;;;;11.13;8.45;;;;;;;;;;4911071;29;20100;-69
2022/09/02 11:44:04;;;;;;;10.60;7.95;;;;;;;;;;4916052;29;20067;-74
2022/09/02 11:46:50;;;;;;;10.32;7.72;;;;;;;;;;4921584;29;20080;-73
2022/09/02 11:49:31;;;;;;;14.10;9.02;;;;;;;;;;4916774;29;20249;-72
2022/09/02 11:52:06;;;;;;;11.85;7.32;;;;;;;;;;4910258;29;20463;-73
2022/09/02 11:54:38;;;;;;;10.43;6.82;;;;;;;;;;4926136;29;20397;-75
2022/09/02 11:57:05;;;;;;;9.75;6.68;;;;;;;;;;4963015;28;20032;-71
2022/09/02 11:59:50;;;;;;;10.50;7.43;;;;;;;;;;4952250;28;20023;-72
2022/09/02 12:02:37;;;;;;;9.32;6.20;;;;;;;;;;4953361;28;20042;-75
2022/09/02 12:05:21;;;;;;;7.65;6.68;;;;;;;;;;4966852;28;20437;-73
2022/09/02 12:07:49;;;;;;;14.68;7.30;;;;;;;;;;4952253;28;20083;-74
2022/09/02 12:10:33;;;;;;;8.73;6.28;;;;;;;;;;4960583;28;20038;-74
2022/09/02 12:13:00;;;;;;;8.25;6.32;;;;;;;;;;4972043;28;20034;-74
2022/09/02 12:15:27;;;;;;;9.65;6.47;;;;;;;;;;4959619;28;20037;-74
2022/09/02 12:17:53;;;;;;;13.45;7.50;;;;;;;;;;4957049;29;20441;-77
2022/09/02 12:20:38;;;;;;;13.75;7.00;;;;;;;;;;4957200;29;20477;-75
2022/09/02 12:23:05;;;;;;;10.65;6.70;;;;;;;;;;4961537;28;20069;-77
2022/09/02 12:25:36;;;;;;;10.00;6.72;;;;;;;;;;4976579;28;20039;-75
2022/09/02 12:28:13;;;;;;;10.73;6.30;;;;;;;;;;4956651;28;20382;-78
2022/09/02 12:30:55;;;;;;;8.40;6.80;;;;;;;;;;4968788;28;20137;-73
2022/09/02 12:33:30;;;;;;;10.80;6.22;;;;;;;;;;4971063;28;20074;-72
2022/09/02 12:35:58;;;;;;;8.40;5.95;;;;;;;;;;4979474;28;20054;-75
2022/09/02 12:38:26;;;;;;;8.80;7.00;;;;;;;;;;4983022;28;20035;-77
2022/09/02 12:40:55;;;;;;;11.02;7.15;;;;;;;;;;4994716;28;20026;-76
2022/09/02 12:43:27;;;;;;;10.55;6.93;;;;;;;;;;4982684;28;20035;-76
2022/09/02 12:45:56;;;;;;;7.43;6.25;;;;;;;;;;4981575;28;20105;-72
2022/09/02 12:48:27;;;;;;;10.73;6.88;;;;;;;;;;4970683;28;20030;-72
2022/09/02 12:50:56;;;;;;;12.73;6.30;;;;;;;;;;4964035;28;20035;-71
2022/09/02 12:53:40;;;;;;;7.50;6.22;;;;;;;;;;4962226;28;20077;-88
2022/09/02 12:56:08;;;;;;;8.43;5.55;;;;;;;;;;4962564;28;20027;-79
2022/09/02 12:58:54;;;;;;;8.52;6.00;;;;;;;;;;4955982;28;20027;-75
2022/09/02 13:01:23;;;;;;;8.23;5.80;;;;;;;;;;4962387;28;20397;-82
2022/09/02 13:03:49;;;;;;;7.47;5.47;;;;;;;;;;4961384;28;20033;-77
2022/09/02 13:06:30;;;;;;;7.53;5.40;;;;;;;;;;4976224;28;20113;-77
2022/09/02 13:09:03;;;;;;;8.48;5.50;;;;;;;;;;4970163;28;20030;-75
2022/09/02 13:11:44;;;;;;;12.65;6.05;;;;;;;;;;4941820;28;20081;-78
2022/09/02 13:14:29;;;;;;;8.68;5.93;;;;;;;;;;4973618;28;20035;-75
2022/09/02 13:17:04;;;;;;;8.02;6.07;;;;;;;;;;4969257;28;20100;-78
2022/09/02 13:19:30;;;;;;;9.20;6.18;;;;;;;;;;4994454;28;20030;-78
2022/09/02 13:22:16;;;;;;;7.47;6.55;;;;;;;;;;4994765;28;20030;-76
2022/09/02 13:24:48;;;;;;;8.65;6.85;;;;;;;;;;4987821;28;20800;-77
2022/09/02 13:27:33;;;;;;;9.38;6.60;;;;;;;;;;4975403;28;20042;-79
2022/09/02 13:30:12;;;;;;;9.65;6.55;;;;;;;;;;4975259;28;20105;-77
2022/09/02 13:32:39;;;;;;;9.73;6.30;;;;;;;;;;4975164;28;20026;-72
2022/09/02 13:35:07;;;;;;;12.30;6.55;;;;;;;;;;4983657;28;20397;-72
2022/09/02 13:37:34;;;;;;;7.30;5.60;;;;;;;;;;4975609;28;20465;-76
2022/09/02 13:40:27;;;;;;;8.05;5.97;;;;;;;;;;4975238;28;20027;-77
2022/09/02 13:42:53;;;;;;;8.15;6.55;;;;;;;;;;4966561;28;20035;-76
2022/09/02 13:45:22;;;;;;;8.75;5.88;;;;;;;;;;4977447;28;20039;-72
2022/09/02 13:47:51;;;;;;;8.93;5.90;;;;;;;;;;4974719;28;20026;-73
2022/09/02 13:50:18;;;;;;;9.60;6.53;;;;;;;;;;4987425;28;20026;-74
2022/09/02 13:52:47;;;;;;;9.82;6.78;;;;;;;;;;4977539;28;20023;-74
2022/09/02 13:55:14;;;;;;;8.75;6.15;;;;;;;;;;4972245;28;20390;-72
2022/09/02 13:57:46;;;;;;;7.60;5.90;;;;;;;;;;4973401;28;20022;-75
2022/09/02 14:00:15;;;;;;;7.40;5.93;;;;;;;;;;4979438;28;20065;-74
2022/09/02 14:02:41;;;;;;;8.68;5.85;;;;;;;;;;4977865;28;20093;-73
2022/09/02 14:05:07;;;;;;;9.25;5.78;;;;;;;;;;4975212;28;20118;-72
2022/09/02 14:07:36;;;;;;;9.00;6.95;;;;;;;;;;4975065;28;20034;-75
2022/09/02 14:10:05;;;;;;;9.63;7.63;;;;;;;;;;4974094;28;20511;-74
2022/09/02 14:12:32;;;;;;;10.23;7.07;;;;;;;;;;4986111;28;20468;-73
2022/09/02 14:14:59;;;;;;;8.27;6.47;;;;;;;;;;4979054;28;20058;-74
2022/09/02 14:17:26;;;;;;;8.32;6.10;;;;;;;;;;4974006;28;20026;-78
2022/09/02 14:20:07;;;;;;;7.50;5.40;;;;;;;;;;4986442;28;20026;-78
2022/09/02 14:22:34;;;;;;;10.63;5.25;;;;;;;;;;4974347;28;20018;-69
2022/09/02 14:25:07;;;;;;;7.03;4.90;;;;;;;;;;4983270;28;20046;-74
2022/09/02 14:27:33;;;;;;;8.20;4.32;;;;;;;;;;4980133;28;20106;-70
2022/09/02 14:30:03;;;;;;;25.83;20.58;;;;;;;;;;4972971;28;20417;-79
2022/09/02 14:32:29;;;;;;;38.22;26.10;;;;;;;;;;4971699;28;20034;-77
2022/09/02 14:35:09;;;;;;;11.88;8.20;;;;;;;;;;4956992;28;20035;-80
2022/09/02 14:37:47;;;;;;;8.25;5.97;;;;;;;;;;4975057;28;20034;-78
2022/09/02 14:40:13;;;;;;;9.93;6.18;;;;;;;;;;4952210;28;20106;-72
2022/09/02 14:42:43;;;;;;;8.23;5.35;;;;;;;;;;4958873;28;20034;-71
2022/09/02 14:45:10;;;;;;;14.23;5.63;;;;;;;;;;4961272;28;20551;-74
2022/09/02 14:47:37;;;;;;;8.80;5.05;;;;;;;;;;4966214;28;20074;-75
2022/09/02 14:50:04;;;;;;;10.43;5.43;;;;;;;;;;4954978;28;20019;-75
2022/09/02 14:52:32;;;;;;;9.93;5.63;;;;;;;;;;4955762;28;20141;-76
2022/09/02 14:54:58;;;;;;;8.10;4.82;;;;;;;;;;4960260;28;20945;-78
2022/09/02 14:57:27;;;;;;;13.25;6.15;;;;;;;;;;4968105;28;20026;-76
2022/09/02 14:59:53;;;;;;;12.73;5.72;;;;;;;;;;4961829;28;20058;-77
2022/09/02 15:02:31;;;;;;;10.70;5.30;;;;;;;;;;4963974;28;20064;-69